Impacts METAR Board INFO
IDs:

KDTW - Detroit Metro/Wayne, MI, US

Updated at: 0910 UTC 20 Jan 2018
Potential Impact None Slight Moderate High
Time19/21Z 19/22Z 19/23Z 20/00Z 20/01Z 20/02Z 20/03Z 20/04Z 20/05Z 20/06Z 20/07Z 20/08Z 20/09Z
VIS10 8 9 9 10 10 10 10 10 10 10 10 10
CIG220 220 200 200 200 180 180 180 180 -- 180 180 240
CoverBKNBKNBKNBKNOVCOVCOVCBKNBKNSCTBKNOVCOVC
FltCatVFRVFRVFRVFRVFRVFRVFRVFRVFRVFRVFRVFRVFR
WX--------------------------
WDir210210200210210220210220230220220230220
WSpd16 15 16 15 18 19 21 22 21 17 17 15 13
WGst-- -- -- -- 25 28 29 29 30 24 -- -- --
Raw hourly METARs
KDTW 192053Z 21016KT 10SM FEW160 BKN220 02/M06 A2986 RMK AO2 SLP118 T00171056 56014
KDTW 192153Z 21015KT 8SM FEW160 BKN220 01/M05 A2985 RMK AO2 SLP116 T00111050
KDTW 192253Z 20016KT 9SM BKN200 01/M05 A2983 RMK AO2 SLP109 T00061050
KDTW 192353Z 21015KT 9SM BKN200 01/M05 A2982 RMK AO2 SLP105 T00061050 10022 20000 58013
KDTW 200053Z 21018G25KT 10SM OVC200 01/M05 A2981 RMK AO2 SLP102 T00111050
KDTW 200153Z 22019G28KT 10SM OVC180 02/M05 A2980 RMK AO2 PK WND 22028/0150 SLP098 T00171050
KDTW 200253Z 21021G29KT 10SM OVC180 02/M05 A2977 RMK AO2 PK WND 22031/0211 SLP087 T00221050 58017
KDTW 200353Z 22022G29KT 10SM BKN180 02/M04 A2977 RMK AO2 PK WND 22032/0315 SLP087 T00221044
KDTW 200453Z 23021G30KT 10SM BKN180 02/M04 A2978 RMK AO2 PK WND 23030/0445 SLP091 T00171044 400221061
KDTW 200553Z 22017G24KT 10SM SCT180 01/M04 A2978 RMK AO2 PK WND 23029/0512 SLP091 T00111044 10022 20000 50005
KDTW 200653Z 22017KT 10SM BKN180 01/M04 A2978 RMK AO2 PK WND 21026/0555 SLP089 T00111044
KDTW 200753Z 23015KT 10SM OVC180 01/M04 A2980 RMK AO2 SLP097 T00111039
KDTW 200853Z 22013KT 10SM SCT180 OVC240 01/M04 A2981 RMK AO2 SLP099 T00111039 53008